Friant, California
Current Conditions -  °F | °C
As of 12:53 PM on Tuesday 25 Nov 2014 (Local Time) from KFAT Reporting Station
Haze Haze  
Wind Chill: 63°   Ceiling: Unl
Heat Index: 63°   Visibility: 5mi
Dew Point: 45°   Wind: 3mph
Humidity: 52%   Direction: 270°W
Pressure: 30.42"   Gusts: NA
Location:  36.99°N, 119.71°W
Report Text: KFAT 252053Z 27003KT 5SM HZ CLR 17/07 A3042 RMK AO2 SLP300 T01720072 58026
Loading
Personal Weather Stations






























Interactive Weather Map New forecast layout! Learn more

10-Day Weather Forecast

Advertisements
Track Severe Weather on mobile